Time;durP1;ratioP1;P1;durP2;ratioP2;P2;SDS_P1;SDS_P2;PMS_P1;PMS_P2;Temp;Humidity;BMP_temperature;BMP_pressure;BME280_temperature;BME280_humidity;BME280_pressure;Samples;Min_cycle;Max_cycle;Signal;HPM_P1;HPM_P2
2023/07/08 00:01:08;;;;;;;7.40;5.15;;;;;17.70;101050.00;;;;10093558;29;20203;-75
2023/07/08 00:06:17;;;;;;;9.10;6.07;;;;;17.60;101043.00;;;;10114927;29;20211;-76
2023/07/08 00:11:19;;;;;;;7.30;5.13;;;;;17.40;101039.00;;;;10118832;29;20220;-76
2023/07/08 00:16:20;;;;;;;9.82;5.13;;;;;17.30;101037.00;;;;10095297;29;20212;-79
2023/07/08 00:21:21;;;;;;;10.45;5.40;;;;;17.20;101034.00;;;;10079971;29;20227;-76
2023/07/08 00:26:26;;;;;;;7.60;4.82;;;;;17.10;101034.00;;;;10114091;29;20222;-76
2023/07/08 00:31:27;;;;;;;8.23;4.90;;;;;17.00;101028.00;;;;10111825;29;20682;-76
2023/07/08 00:36:29;;;;;;;7.68;5.15;;;;;17.00;101032.00;;;;10112583;29;20211;-80
2023/07/08 00:41:34;;;;;;;8.85;5.47;;;;;16.90;101034.00;;;;10112491;29;20315;-76
2023/07/08 00:46:53;;;;;;;7.97;5.10;;;;;16.90;101020.00;;;;10113000;29;20215;-81
2023/07/08 00:51:54;;;;;;;7.00;5.25;;;;;16.80;101018.00;;;;10092872;29;20196;-76
2023/07/08 00:57:00;;;;;;;7.47;5.32;;;;;16.80;101018.00;;;;10108221;29;20227;-76
2023/07/08 01:02:06;;;;;;;10.00;5.43;;;;;16.60;101027.00;;;;10108183;29;20204;-76
2023/07/08 01:07:09;;;;;;;9.93;5.43;;;;;16.50;101022.00;;;;10118490;29;20248;-76
2023/07/08 01:12:18;;;;;;;7.68;5.93;;;;;16.40;101026.00;;;;10117140;29;20594;-75
2023/07/08 01:17:21;;;;;;;8.75;5.75;;;;;16.40;101021.00;;;;10115074;29;20303;-81
2023/07/08 01:22:23;;;;;;;9.55;5.45;;;;;16.30;101017.00;;;;10107727;29;20204;-76
2023/07/08 01:27:24;;;;;;;9.45;5.30;;;;;16.20;101020.00;;;;10119872;29;20226;-76
2023/07/08 01:32:25;;;;;;;9.77;5.47;;;;;16.20;101013.00;;;;10109198;29;20287;-75
2023/07/08 01:37:37;;;;;;;8.45;5.53;;;;;16.20;100995.00;;;;10111409;29;20212;-76
2023/07/08 01:42:38;;;;;;;9.45;5.57;;;;;16.20;100998.00;;;;10103669;29;20246;-76
2023/07/08 01:47:42;;;;;;;9.18;5.43;;;;;16.10;100987.00;;;;10109625;29;20235;-75
2023/07/08 01:52:44;;;;;;;8.95;5.60;;;;;16.00;100995.00;;;;10105693;29;20674;-75
2023/07/08 01:57:45;;;;;;;7.10;5.07;;;;;15.90;100995.00;;;;10114456;29;20232;-76
2023/07/08 02:02:47;;;;;;;8.13;5.80;;;;;15.90;100997.00;;;;10100609;29;20199;-76
2023/07/08 02:07:48;;;;;;;9.80;5.57;;;;;15.80;100990.00;;;;10108611;29;20227;-79
2023/07/08 02:12:49;;;;;;;8.60;6.18;;;;;15.70;100990.00;;;;10117588;29;20234;-77
2023/07/08 02:17:50;;;;;;;7.33;6.00;;;;;15.70;100987.00;;;;10112293;29;20212;-76
2023/07/08 02:22:52;;;;;;;8.57;6.50;;;;;15.60;100993.00;;;;10105076;29;20219;-76
2023/07/08 02:27:56;;;;;;;8.73;6.07;;;;;15.60;100988.00;;;;10113692;29;20222;-77
2023/07/08 02:32:58;;;;;;;9.57;5.77;;;;;15.40;100990.00;;;;10074393;29;20208;-76
2023/07/08 02:37:59;;;;;;;10.03;6.20;;;;;15.40;100994.00;;;;10093105;29;20574;-75
2023/07/08 02:43:00;;;;;;;10.77;6.47;;;;;15.30;101003.00;;;;10109159;29;20204;-76
2023/07/08 02:48:02;;;;;;;10.17;6.60;;;;;15.40;101004.00;;;;10107727;29;20716;-76
2023/07/08 02:53:03;;;;;;;9.50;5.77;;;;;15.40;101011.00;;;;10102030;29;20199;-76
2023/07/08 02:58:05;;;;;;;10.63;6.07;;;;;15.60;101000.00;;;;10107761;29;20220;-76
2023/07/08 03:03:06;;;;;;;7.37;6.10;;;;;15.70;101008.00;;;;10099932;29;20211;-76
2023/07/08 03:08:08;;;;;;;8.27;6.90;;;;;15.70;101013.00;;;;10088877;29;20216;-76
2023/07/08 03:13:09;;;;;;;8.33;6.53;;;;;15.70;101013.00;;;;10106427;29;20706;-79
2023/07/08 03:18:11;;;;;;;8.67;6.13;;;;;15.70;101022.00;;;;10112663;29;20942;-80
2023/07/08 03:23:12;;;;;;;9.10;5.97;;;;;15.60;101020.00;;;;10110214;29;20581;-77
2023/07/08 03:28:14;;;;;;;8.97;5.60;;;;;15.60;101023.00;;;;10111599;29;20280;-76
2023/07/08 03:33:17;;;;;;;7.87;5.80;;;;;15.60;101018.00;;;;10095494;29;20310;-75
2023/07/08 03:38:18;;;;;;;10.80;6.33;;;;;15.60;101016.00;;;;10109394;29;20204;-75
2023/07/08 03:43:19;;;;;;;7.80;5.97;;;;;15.70;101014.00;;;;10111735;29;20216;-75
2023/07/08 03:48:21;;;;;;;9.27;6.53;;;;;15.70;101007.00;;;;10107910;29;20302;-74
2023/07/08 03:53:24;;;;;;;8.10;6.10;;;;;15.60;101010.00;;;;10102709;29;20226;-73
2023/07/08 03:58:27;;;;;;;7.70;5.90;;;;;15.50;101013.00;;;;10094693;29;20212;-77
2023/07/08 04:03:29;;;;;;;8.50;6.37;;;;;15.50;101012.00;;;;10081429;29;20271;-74
2023/07/08 04:08:30;;;;;;;9.93;6.23;;;;;15.50;101002.00;;;;10108161;29;20625;-77
2023/07/08 04:13:32;;;;;;;10.53;7.27;;;;;15.50;101000.00;;;;10099990;29;20631;-76
2023/07/08 04:18:33;;;;;;;12.83;6.60;;;;;15.60;100995.00;;;;10108158;29;20212;-76
2023/07/08 04:23:35;;;;;;;11.33;7.00;;;;;15.70;100991.00;;;;10098102;29;20242;-76
2023/07/08 04:28:36;;;;;;;9.88;6.50;;;;;15.80;101004.00;;;;10114384;29;20698;-74
2023/07/08 04:33:38;;;;;;;12.65;6.50;;;;;15.90;101011.00;;;;10103298;29;20205;-76
2023/07/08 04:38:41;;;;;;;9.35;6.72;;;;;16.00;100994.00;;;;10119292;29;20618;-77
2023/07/08 04:43:42;;;;;;;8.00;6.22;;;;;16.20;101001.00;;;;10123354;29;20231;-75
2023/07/08 04:48:43;;;;;;;13.80;7.28;;;;;16.30;101006.00;;;;10109646;29;20302;-77
2023/07/08 04:53:45;;;;;;;12.93;6.97;;;;;16.50;101010.00;;;;10104924;29;20214;-75
2023/07/08 04:58:46;;;;;;;11.02;7.90;;;;;16.80;101001.00;;;;10110281;29;20299;-81
2023/07/08 05:03:47;;;;;;;11.98;6.93;;;;;17.10;101012.00;;;;10114833;29;20216;-77
2023/07/08 05:08:49;;;;;;;12.50;8.00;;;;;17.50;101011.00;;;;10112339;29;20223;-79
2023/07/08 05:13:50;;;;;;;9.77;7.80;;;;;17.90;101006.00;;;;10091462;29;20232;-76
2023/07/08 05:18:52;;;;;;;10.90;7.93;;;;;18.40;101002.00;;;;10105892;29;20216;-76
2023/07/08 05:23:53;;;;;;;8.68;7.05;;;;;18.80;101013.00;;;;10096188;29;20213;-75
2023/07/08 05:28:55;;;;;;;9.68;7.75;;;;;19.30;101014.00;;;;10111429;29;20230;-75
2023/07/08 05:33:56;;;;;;;9.02;5.95;;;;;19.70;101009.00;;;;10109133;29;20214;-75
2023/07/08 05:38:57;;;;;;;9.80;7.30;;;;;20.20;101001.00;;;;10103436;29;20378;-76
2023/07/08 05:43:58;;;;;;;9.38;6.60;;;;;20.70;101002.00;;;;10107778;29;20207;-76
2023/07/08 05:49:00;;;;;;;10.63;6.72;;;;;21.30;100999.00;;;;10110101;29;20243;-76
2023/07/08 05:54:03;;;;;;;9.75;6.60;;;;;21.80;100999.00;;;;10107756;29;20208;-75
2023/07/08 05:59:04;;;;;;;8.57;6.38;;;;;22.30;101002.00;;;;10109749;29;20223;-75
2023/07/08 06:04:05;;;;;;;7.95;6.65;;;;;22.70;101003.00;;;;10108378;29;20283;-75
2023/07/08 06:09:07;;;;;;;11.60;6.95;;;;;23.10;101005.00;;;;10098406;29;20224;-76
2023/07/08 06:14:08;;;;;;;10.68;6.75;;;;;23.50;101009.00;;;;10110547;29;20309;-74
2023/07/08 06:19:10;;;;;;;11.23;6.63;;;;;24.00;101015.00;;;;10109151;29;20211;-75
2023/07/08 06:24:11;;;;;;;7.30;6.35;;;;;24.30;101007.00;;;;10118423;29;20625;-74
2023/07/08 06:29:12;;;;;;;10.95;7.20;;;;;24.60;101012.00;;;;10113436;29;20231;-74
2023/07/08 06:34:13;;;;;;;10.27;6.90;;;;;25.00;101001.00;;;;10114268;29;20314;-75
2023/07/08 06:39:15;;;;;;;8.07;7.10;;;;;25.40;101005.00;;;;10119092;29;20231;-74
2023/07/08 06:44:16;;;;;;;10.55;6.80;;;;;25.70;100996.00;;;;10120439;29;20220;-75
2023/07/08 06:49:17;;;;;;;10.88;6.57;;;;;26.10;101000.00;;;;10136813;29;20702;-75
2023/07/08 06:54:19;;;;;;;13.13;7.22;;;;;26.70;100996.00;;;;10120040;29;20671;-75
2023/07/08 06:59:20;;;;;;;9.25;6.65;;;;;27.20;101016.00;;;;10115363;29;20215;-75
2023/07/08 07:04:21;;;;;;;9.38;6.55;;;;;27.70;101028.00;;;;10104940;29;20290;-75
2023/07/08 07:09:22;;;;;;;9.35;6.20;;;;;28.10;101030.00;;;;10107316;29;20239;-75
2023/07/08 07:14:23;;;;;;;9.23;6.00;;;;;28.50;101042.00;;;;10107572;29;20227;-77
2023/07/08 07:19:28;;;;;;;8.93;6.60;;;;;29.00;101040.00;;;;10108981;29;20208;-75
2023/07/08 07:24:29;;;;;;;12.90;6.40;;;;;29.10;101022.00;;;;10104486;29;20272;-75
2023/07/08 07:29:41;;;;;;;8.35;5.80;;;;;29.60;101029.00;;;;10111806;29;20227;-75
2023/07/08 07:34:42;;;;;;;7.55;6.10;;;;;30.10;101018.00;;;;10108643;29;20303;-75
2023/07/08 07:39:44;;;;;;;9.52;6.57;;;;;30.50;101024.00;;;;10110748;29;20590;-80
2023/07/08 07:44:45;;;;;;;7.30;5.93;;;;;31.00;101014.00;;;;10106172;29;20684;-75
2023/07/08 07:49:47;;;;;;;10.55;6.38;;;;;31.50;101024.00;;;;10107407;29;20698;-76
2023/07/08 07:54:48;;;;;;;8.93;6.03;;;;;31.90;101012.00;;;;10111441;29;20242;-77
2023/07/08 07:59:50;;;;;;;7.55;5.70;;;;;32.30;101015.00;;;;10116121;29;20208;-76
2023/07/08 08:04:51;;;;;;;9.20;5.80;;;;;32.50;101015.00;;;;10116681;29;20207;-75
2023/07/08 08:09:52;;;;;;;13.57;6.70;;;;;32.80;101021.00;;;;10102812;29;20247;-75
2023/07/08 08:14:54;;;;;;;7.22;6.22;;;;;33.20;101016.00;;;;10110370;29;20215;-75
2023/07/08 08:19:55;;;;;;;9.00;6.72;;;;;33.60;101033.00;;;;10100342;29;20231;-75
2023/07/08 08:24:56;;;;;;;9.63;6.88;;;;;34.00;101026.00;;;;10110200;29;20715;-75
2023/07/08 08:29:57;;;;;;;7.90;6.35;;;;;34.50;101022.00;;;;10111267;29;20247;-76
2023/07/08 08:34:58;;;;;;;9.90;6.95;;;;;34.70;101026.00;;;;10108172;29;20214;-75
2023/07/08 08:40:04;;;;;;;7.95;6.45;;;;;35.30;101031.00;;;;10123909;29;20211;-75
2023/07/08 08:45:10;;;;;;;8.75;6.93;;;;;35.70;101021.00;;;;10112070;29;20211;-75
2023/07/08 08:50:43;;;;;;;8.05;6.82;;;;;35.90;101030.00;;;;10110804;29;20646;-77
2023/07/08 08:55:50;;;;;;;7.22;6.47;;;;;36.30;101032.00;;;;10109821;29;20726;-75
2023/07/08 09:01:00;;;;;;;8.40;6.78;;;;;36.60;101033.00;;;;10113699;29;20285;-75
2023/07/08 09:06:14;;;;;;;8.20;6.60;;;;;37.10;101017.00;;;;10111205;29;20255;-75
2023/07/08 09:11:42;;;;;;;9.55;6.82;;;;;36.60;101018.00;;;;10108300;29;20220;-76
2023/07/08 09:16:56;;;;;;;8.32;6.80;;;;;37.00;101022.00;;;;10112658;29;20242;-78
2023/07/08 09:22:13;;;;;;;8.88;7.07;;;;;37.30;101025.00;;;;10122774;29;20270;-75
2023/07/08 09:27:15;;;;;;;7.78;6.95;;;;;37.20;101025.00;;;;10104179;29;20226;-74
2023/07/08 09:32:18;;;;;;;8.07;6.85;;;;;37.40;101022.00;;;;10113327;29;20339;-78
2023/07/08 09:37:31;;;;;;;7.85;6.50;;;;;37.90;101028.00;;;;10116295;29;20208;-78
2023/07/08 09:42:34;;;;;;;11.77;7.68;;;;;38.10;101029.00;;;;10103196;29;20623;-76
2023/07/08 09:47:37;;;;;;;7.63;6.82;;;;;38.40;101028.00;;;;10116649;29;20238;-75
2023/07/08 09:52:38;;;;;;;9.43;6.88;;;;;38.90;101023.00;;;;10106602;29;20627;-75
2023/07/08 09:57:40;;;;;;;8.18;7.38;;;;;38.90;101029.00;;;;10106106;29;20570;-75
2023/07/08 10:02:52;;;;;;;9.73;6.53;;;;;38.90;101026.00;;;;10110500;29;20295;-75
2023/07/08 10:07:56;;;;;;;7.28;6.43;;;;;39.20;101031.00;;;;10109409;29;20245;-75
2023/07/08 10:13:04;;;;;;;11.75;6.90;;;;;39.40;101036.00;;;;10099784;29;20223;-75
2023/07/08 10:18:15;;;;;;;6.95;6.25;;;;;39.20;101037.00;;;;10090665;29;20294;-74
2023/07/08 10:23:16;;;;;;;9.88;7.00;;;;;39.20;101037.00;;;;10116601;29;20244;-75
2023/07/08 10:29:07;;;;;;;8.77;6.95;;;;;39.20;101024.00;;;;10091906;29;20241;-78
2023/07/08 10:35:00;;;;;;;12.93;7.28;;;;;39.50;101035.00;;;;10105907;29;20228;-76
2023/07/08 10:40:30;;;;;;;9.18;7.18;;;;;39.70;101035.00;;;;10057469;29;20669;-75
2023/07/08 10:45:53;;;;;;;9.10;7.78;;;;;39.60;101034.00;;;;10100090;29;20237;-75
2023/07/08 10:51:22;;;;;;;8.05;7.20;;;;;39.50;101038.00;;;;10110837;29;20590;-75
2023/07/08 10:56:36;;;;;;;8.95;6.97;;;;;39.60;101041.00;;;;10110941;29;20258;-75
2023/07/08 11:02:14;;;;;;;8.85;6.72;;;;;39.90;101037.00;;;;10106832;29;20697;-72
2023/07/08 11:07:19;;;;;;;10.18;7.35;;;;;39.90;101037.00;;;;10092882;29;20204;-75
2023/07/08 11:13:03;;;;;;;10.77;7.35;;;;;39.60;101033.00;;;;10109981;29;20223;-80
2023/07/08 11:18:14;;;;;;;9.23;7.03;;;;;39.70;101029.00;;;;10058120;29;20227;-75
2023/07/08 11:23:37;;;;;;;7.65;6.88;;;;;40.20;101039.00;;;;10102320;29;20209;-74
2023/07/08 11:28:38;;;;;;;10.15;6.57;;;;;40.80;101037.00;;;;10112336;29;20219;-76
2023/07/08 11:33:40;;;;;;;8.45;7.55;;;;;40.70;101033.00;;;;10113022;29;20261;-76
2023/07/08 11:38:49;;;;;;;9.10;7.18;;;;;40.90;101023.00;;;;10109336;29;20215;-74
2023/07/08 11:44:11;;;;;;;9.90;6.70;;;;;41.20;101022.00;;;;10110217;29;20239;-75
2023/07/08 11:49:14;;;;;;;8.55;5.57;;;;;41.00;101011.00;;;;10115780;29;20231;-75
2023/07/08 11:54:27;;;;;;;6.90;5.80;;;;;41.40;101017.00;;;;10114059;29;20215;-75
2023/07/08 11:59:32;;;;;;;9.90;6.22;;;;;41.80;101003.00;;;;10112420;29;20207;-75
2023/07/08 12:04:36;;;;;;;6.82;5.00;;;;;42.30;100992.00;;;;10114711;29;20203;-75
2023/07/08 12:09:45;;;;;;;6.68;5.32;;;;;42.20;100989.00;;;;10117609;29;20229;-74
2023/07/08 12:14:46;;;;;;;7.75;5.30;;;;;42.20;100993.00;;;;10118543;29;20300;-75
2023/07/08 12:19:50;;;;;;;11.00;5.35;;;;;41.60;100988.00;;;;10118190;29;20225;-78
2023/07/08 12:24:51;;;;;;;9.52;6.22;;;;;41.10;100986.00;;;;10106905;29;20196;-74
2023/07/08 12:29:53;;;;;;;9.30;6.05;;;;;41.70;100975.00;;;;10113700;29;20238;-82
2023/07/08 12:34:54;;;;;;;6.65;5.00;;;;;41.90;100979.00;;;;10111371;29;20328;-81
2023/07/08 12:39:59;;;;;;;7.05;5.30;;;;;41.50;100988.00;;;;10113585;29;20206;-82
2023/07/08 12:45:00;;;;;;;8.35;5.53;;;;;40.50;100999.00;;;;10078014;29;20203;-80
2023/07/08 12:50:02;;;;;;;10.80;5.85;;;;;40.10;101002.00;;;;10108842;29;20219;-76
2023/07/08 12:55:04;;;;;;;7.15;5.70;;;;;39.80;101013.00;;;;10120190;29;20206;-74
2023/07/08 13:00:06;;;;;;;9.30;4.82;;;;;38.80;101049.00;;;;10122141;29;20200;-74
2023/07/08 13:05:09;;;;;;;11.93;4.35;;;;;36.10;101057.00;;;;10106859;29;20203;-74
2023/07/08 13:10:21;;;;;;;9.30;4.10;;;;;33.40;101049.00;;;;10046069;29;20607;-74
2023/07/08 13:15:29;;;;;;;9.50;4.80;;;;;31.00;101055.00;;;;10113587;29;20906;-74
2023/07/08 13:20:31;;;;;;;10.00;4.95;;;;;29.30;101031.00;;;;10110987;29;20239;-74
2023/07/08 13:25:32;;;;;;;8.45;4.93;;;;;27.90;101051.00;;;;10107633;29;20214;-74
2023/07/08 13:30:34;;;;;;;9.90;4.88;;;;;26.60;101064.00;;;;10108648;29;20228;-78
2023/07/08 13:35:39;;;;;;;15.77;5.82;;;;;25.00;101074.00;;;;10111116;29;20212;-75
2023/07/08 13:40:46;;;;;;;16.30;6.47;;;;;23.60;101096.00;;;;10117137;29;20199;-74
2023/07/08 13:45:47;;;;;;;14.90;6.43;;;;;21.70;101049.00;;;;10111583;29;20302;-74
2023/07/08 13:51:09;;;;;;;11.88;5.03;;;;;21.30;101080.00;;;;10113567;29;20251;-73
2023/07/08 13:56:24;;;;;;;12.10;5.90;;;;;21.20;101075.00;;;;10116513;29;20574;-74
2023/07/08 14:01:27;;;;;;;14.77;6.57;;;;;21.90;101083.00;;;;10134140;29;20650;-75
2023/07/08 14:06:38;;;;;;;11.10;5.97;;;;;23.20;101092.00;;;;10119379;29;20215;-76
2023/07/08 14:11:39;;;;;;;11.60;5.45;;;;;24.10;101101.00;;;;10113526;29;20733;-76
2023/07/08 14:16:47;;;;;;;12.32;5.20;;;;;25.10;101083.00;;;;10133993;29;20239;-73
2023/07/08 14:21:53;;;;;;;10.82;5.70;;;;;27.00;101086.00;;;;10115276;29;20208;-74
2023/07/08 14:26:54;;;;;;;11.35;5.38;;;;;28.40;101088.00;;;;10116934;29;20211;-73
2023/07/08 14:31:55;;;;;;;9.27;5.53;;;;;29.20;101096.00;;;;10152833;29;20241;-75
2023/07/08 14:36:57;;;;;;;8.43;4.43;;;;;29.40;101094.00;;;;10129762;29;20235;-79
2023/07/08 14:42:01;;;;;;;7.43;4.43;;;;;28.90;101093.00;;;;10136590;29;20266;-78
2023/07/08 14:47:08;;;;;;;7.03;4.18;;;;;29.30;101102.00;;;;10139488;29;20211;-88
2023/07/08 14:52:10;;;;;;;6.70;4.40;;;;;29.50;101088.00;;;;10134772;29;20586;-75
2023/07/08 14:57:15;;;;;;;7.85;4.38;;;;;30.60;101087.00;;;;10133492;29;20209;-79
2023/07/08 15:02:20;;;;;;;8.75;4.45;;;;;31.00;101086.00;;;;10130046;29;20549;-80
2023/07/08 15:07:21;;;;;;;6.55;4.35;;;;;31.00;101075.00;;;;10131298;29;20209;-82
2023/07/08 15:12:23;;;;;;;6.72;4.10;;;;;31.30;101079.00;;;;10129883;29;20235;-74
2023/07/08 15:17:24;;;;;;;5.28;4.10;;;;;31.80;101087.00;;;;10134667;29;20211;-86
2023/07/08 15:22:25;;;;;;;7.72;3.97;;;;;32.20;101084.00;;;;10147950;29;20216;-77
2023/07/08 15:27:26;;;;;;;8.65;4.30;;;;;32.50;101090.00;;;;10135413;29;20207;-78
2023/07/08 15:32:28;;;;;;;8.35;4.00;;;;;33.30;101084.00;;;;10147407;29;20207;-83
2023/07/08 15:37:43;;;;;;;5.50;3.63;;;;;34.40;101081.00;;;;10125937;29;20292;-82
2023/07/08 15:42:47;;;;;;;6.93;4.28;;;;;34.60;101080.00;;;;10139763;29;20302;-74
2023/07/08 15:47:49;;;;;;;7.63;3.85;;;;;33.40;101090.00;;;;10129387;29;20251;-74
2023/07/08 15:52:51;;;;;;;8.20;4.30;;;;;32.90;101086.00;;;;10139063;29;20306;-80
2023/07/08 15:58:09;;;;;;;10.25;4.45;;;;;31.60;101070.00;;;;10130709;29;20202;-81
2023/07/08 16:03:28;;;;;;;7.70;4.63;;;;;31.00;101072.00;;;;10118229;29;20203;-78
2023/07/08 16:08:29;;;;;;;7.13;4.07;;;;;30.90;101065.00;;;;10115081;29;20234;-79
2023/07/08 16:13:34;;;;;;;8.05;4.63;;;;;30.80;101060.00;;;;10162308;29;20207;-81
2023/07/08 16:18:39;;;;;;;7.55;4.85;;;;;30.60;101065.00;;;;10140778;29;20203;-83
2023/07/08 16:23:40;;;;;;;7.68;4.57;;;;;30.40;101071.00;;;;10138242;29;20212;-75
2023/07/08 16:28:44;;;;;;;7.55;4.55;;;;;30.60;101061.00;;;;10126700;29;20219;-78
2023/07/08 16:33:47;;;;;;;8.00;5.50;;;;;30.50;101060.00;;;;10110883;29;20210;-82
2023/07/08 16:38:48;;;;;;;6.00;4.72;;;;;30.50;101064.00;;;;10099508;29;20238;-82
2023/07/08 16:43:52;;;;;;;8.20;5.15;;;;;30.40;101064.00;;;;10125681;29;20212;-78
2023/07/08 16:48:54;;;;;;;9.13;5.30;;;;;30.50;101055.00;;;;10131350;29;20279;-75
2023/07/08 16:54:09;;;;;;;8.65;5.28;;;;;30.60;101052.00;;;;10131764;29;20215;-75
2023/07/08 16:59:12;;;;;;;9.60;5.30;;;;;30.80;101051.00;;;;10110175;29;20213;-82
2023/07/08 17:04:15;;;;;;;9.68;5.22;;;;;30.80;101054.00;;;;10138272;29;20207;-79
2023/07/08 17:09:16;;;;;;;10.00;6.03;;;;;30.70;101056.00;;;;10124452;29;20223;-79
2023/07/08 17:14:17;;;;;;;8.73;5.18;;;;;30.50;101061.00;;;;10134873;29;20223;-79
2023/07/08 17:19:19;;;;;;;6.75;5.22;;;;;30.40;101070.00;;;;10136230;29;20218;-74
2023/07/08 17:24:21;;;;;;;9.23;5.25;;;;;30.30;101059.00;;;;10134166;29;20685;-82
2023/07/08 17:29:24;;;;;;;8.73;4.60;;;;;30.10;101063.00;;;;10123460;29;20224;-81
2023/07/08 17:34:27;;;;;;;5.80;4.03;;;;;30.00;101067.00;;;;10130773;29;20234;-78
2023/07/08 17:39:28;;;;;;;5.13;3.80;;;;;29.80;101075.00;;;;10131317;29;20195;-79
2023/07/08 17:44:29;;;;;;;8.27;3.92;;;;;29.60;101069.00;;;;10110715;29;20203;-76
2023/07/08 17:49:31;;;;;;;7.05;3.72;;;;;29.40;101073.00;;;;10115940;29;20228;-78
2023/07/08 17:54:32;;;;;;;5.43;3.33;;;;;29.30;101065.00;;;;10122954;29;20222;-75
2023/07/08 17:59:33;;;;;;;6.60;3.55;;;;;29.40;101067.00;;;;10126997;29;20200;-75
2023/07/08 18:04:35;;;;;;;7.35;4.10;;;;;29.40;101063.00;;;;10134558;29;20212;-78
2023/07/08 18:09:36;;;;;;;7.68;4.07;;;;;29.50;101065.00;;;;10131424;29;20227;-78
2023/07/08 18:14:38;;;;;;;5.38;3.58;;;;;29.70;101081.00;;;;10136948;29;20204;-77
2023/07/08 18:19:39;;;;;;;4.65;3.50;;;;;29.60;101089.00;;;;10124668;29;20295;-81
2023/07/08 18:24:42;;;;;;;5.35;3.17;;;;;29.60;101096.00;;;;10087213;29;20207;-79
2023/07/08 18:29:44;;;;;;;8.07;3.88;;;;;29.40;101112.00;;;;10127216;29;20232;-78
2023/07/08 18:34:45;;;;;;;9.25;4.15;;;;;29.30;101105.00;;;;10132623;29;20270;-78
2023/07/08 18:39:46;;;;;;;7.82;3.30;;;;;29.20;101105.00;;;;10111267;29;20204;-78
2023/07/08 18:44:48;;;;;;;5.22;3.30;;;;;29.00;101108.00;;;;10131458;29;20188;-75
2023/07/08 18:49:49;;;;;;;8.00;3.85;;;;;28.80;101109.00;;;;10117524;29;20230;-76
2023/07/08 18:54:51;;;;;;;5.45;3.80;;;;;28.60;101122.00;;;;10127363;29;20235;-81
2023/07/08 18:59:52;;;;;;;4.80;3.92;;;;;28.40;101114.00;;;;10131468;29;20290;-82
2023/07/08 19:04:53;;;;;;;6.35;3.80;;;;;28.20;101111.00;;;;10135807;29;20206;-84
2023/07/08 19:09:55;;;;;;;5.45;3.10;;;;;28.10;101114.00;;;;10129055;29;20215;-84
2023/07/08 19:14:56;;;;;;;7.10;3.42;;;;;27.90;101112.00;;;;10103682;29;20714;-84
2023/07/08 19:19:58;;;;;;;7.60;3.58;;;;;27.70;101127.00;;;;10105561;29;20709;-77
2023/07/08 19:24:59;;;;;;;4.75;3.67;;;;;27.40;101101.00;;;;10107215;29;20235;-80
2023/07/08 19:30:00;;;;;;;7.03;3.60;;;;;27.10;101109.00;;;;10131823;29;20231;-85
2023/07/08 19:35:02;;;;;;;6.13;3.80;;;;;26.80;101111.00;;;;10115067;29;20211;-79
2023/07/08 19:40:03;;;;;;;6.45;4.32;;;;;26.40;101119.00;;;;10130243;29;20208;-76
2023/07/08 19:45:14;;;;;;;5.88;3.40;;;;;26.10;101116.00;;;;10134393;29;20203;-79
2023/07/08 19:50:16;;;;;;;6.13;4.05;;;;;25.70;101118.00;;;;10133550;29;20224;-76
2023/07/08 19:55:17;;;;;;;6.18;4.20;;;;;25.50;101117.00;;;;10137726;29;20286;-81
2023/07/08 20:00:37;;;;;;;4.60;3.55;;;;;25.20;101120.00;;;;10138842;29;20211;-84
2023/07/08 20:05:39;;;;;;;6.68;3.85;;;;;24.90;101129.00;;;;10137956;29;20214;-84
2023/07/08 20:10:40;;;;;;;6.93;3.65;;;;;24.70;101144.00;;;;10136442;29;20258;-83
2023/07/08 20:15:42;;;;;;;7.97;4.13;;;;;24.60;101146.00;;;;10152019;29;20543;-75
2023/07/08 20:20:43;;;;;;;4.43;3.67;;;;;24.40;101156.00;;;;10137948;29;20302;-81
2023/07/08 20:25:45;;;;;;;5.43;4.03;;;;;24.30;101169.00;;;;10147334;29;20696;-77
2023/07/08 20:30:48;;;;;;;7.22;4.22;;;;;24.20;101179.00;;;;10136081;29;20315;-75
2023/07/08 20:35:50;;;;;;;7.13;4.43;;;;;24.10;101183.00;;;;10126620;29;20211;-79
2023/07/08 20:40:52;;;;;;;7.35;4.53;;;;;24.00;101185.00;;;;10112947;29;20626;-76
2023/07/08 20:45:54;;;;;;;5.80;3.70;;;;;23.90;101175.00;;;;10115498;29;20263;-80
2023/07/08 20:50:55;;;;;;;5.07;4.30;;;;;23.80;101180.00;;;;10114741;29;20247;-77
2023/07/08 20:55:57;;;;;;;7.63;5.07;;;;;23.70;101178.00;;;;10128916;29;20619;-76
2023/07/08 21:00:58;;;;;;;7.43;4.32;;;;;23.60;101185.00;;;;10141977;29;20211;-81
2023/07/08 21:06:00;;;;;;;9.50;5.13;;;;;23.60;101182.00;;;;10111779;29;20201;-84
2023/07/08 21:11:03;;;;;;;13.60;5.97;;;;;23.50;101179.00;;;;10139184;29;20228;-81
2023/07/08 21:16:12;;;;;;;9.45;5.90;;;;;23.50;101181.00;;;;10139021;29;20318;-81
2023/07/08 21:21:14;;;;;;;12.07;6.55;;;;;23.40;101172.00;;;;10119280;29;20215;-81
2023/07/08 21:26:28;;;;;;;11.32;7.20;;;;;23.30;101179.00;;;;10156601;29;20211;-81
2023/07/08 21:31:30;;;;;;;16.45;7.30;;;;;23.20;101180.00;;;;10144668;29;20226;-76
2023/07/08 21:36:34;;;;;;;17.90;7.10;;;;;23.10;101189.00;;;;10135633;29;20197;-79
2023/07/08 21:41:35;;;;;;;10.30;5.68;;;;;23.00;101184.00;;;;10129825;29;20291;-82
2023/07/08 21:46:37;;;;;;;15.40;7.00;;;;;22.80;101193.00;;;;10138013;29;20309;-82
2023/07/08 21:51:39;;;;;;;11.70;6.78;;;;;22.70;101189.00;;;;10115892;29;20666;-86
2023/07/08 21:56:41;;;;;;;11.30;6.85;;;;;22.60;101197.00;;;;10138657;29;20260;-86
2023/07/08 22:01:43;;;;;;;11.38;6.63;;;;;22.50;101202.00;;;;10132330;29;20207;-80
2023/07/08 22:06:44;;;;;;;9.75;6.53;;;;;22.40;101201.00;;;;10114133;29;20239;-81
2023/07/08 22:11:46;;;;;;;10.50;6.95;;;;;22.30;101208.00;;;;10125194;29;20631;-77
2023/07/08 22:16:47;;;;;;;9.57;6.05;;;;;22.20;101214.00;;;;10120959;29;20212;-82
2023/07/08 22:22:10;;;;;;;13.77;6.25;;;;;22.10;101218.00;;;;10132832;29;20195;-81
2023/07/08 22:27:11;;;;;;;11.73;6.53;;;;;22.10;101212.00;;;;10143727;29;20275;-77
2023/07/08 22:32:12;;;;;;;11.07;6.35;;;;;22.00;101217.00;;;;10133873;29;20235;-77
2023/07/08 22:37:13;;;;;;;10.45;6.07;;;;;22.00;101221.00;;;;10117621;29;20199;-80
2023/07/08 22:42:16;;;;;;;8.50;5.47;;;;;21.90;101213.00;;;;10134328;29;20203;-84
2023/07/08 22:47:17;;;;;;;8.48;5.95;;;;;21.80;101208.00;;;;10120267;29;20216;-85
2023/07/08 22:52:30;;;;;;;11.85;7.10;;;;;21.80;101209.00;;;;10103800;29;20238;-79
2023/07/08 22:57:32;;;;;;;9.65;6.75;;;;;21.70;101208.00;;;;10103978;29;20239;-79
2023/07/08 23:02:33;;;;;;;9.07;6.53;;;;;21.60;101195.00;;;;10124342;29;20213;-82
2023/07/08 23:07:35;;;;;;;10.57;7.57;;;;;21.60;101198.00;;;;10114692;29;20243;-82
2023/07/08 23:12:36;;;;;;;8.63;6.97;;;;;21.50;101206.00;;;;10110671;29;20219;-77
2023/07/08 23:17:42;;;;;;;8.98;7.18;;;;;21.40;101197.00;;;;10103509;29;20421;-80
2023/07/08 23:22:45;;;;;;;9.10;7.22;;;;;21.30;101199.00;;;;10104891;29;20403;-81
2023/07/08 23:27:46;;;;;;;10.02;6.53;;;;;21.20;101198.00;;;;10122674;29;20288;-83
2023/07/08 23:32:48;;;;;;;7.85;6.47;;;;;21.10;101190.00;;;;10106755;29;20222;-78
2023/07/08 23:37:49;;;;;;;14.63;6.82;;;;;21.10;101196.00;;;;10109712;29;20643;-83
2023/07/08 23:42:50;;;;;;;9.07;7.28;;;;;21.00;101199.00;;;;10084739;29;20238;-81
2023/07/08 23:47:52;;;;;;;11.80;7.15;;;;;20.90;101195.00;;;;10120989;29;20204;-81
2023/07/08 23:52:53;;;;;;;10.30;6.63;;;;;20.90;101196.00;;;;10112246;29;20263;-80
2023/07/08 23:57:54;;;;;;;7.95;6.90;;;;;20.80;101197.00;;;;10096557;29;20211;-84
